createdAt,value
2023-03-23T15:58:13.928Z,26.09
2023-03-23T16:02:30.403Z,26.51
2023-03-23T16:06:47.107Z,25.92
2023-03-23T16:11:03.294Z,25.46
2023-03-23T16:15:22.116Z,25.40
2023-03-23T16:19:42.478Z,23.38
2023-03-23T16:23:59.203Z,20.78
2023-03-23T16:28:16.151Z,20.23
2023-03-23T16:36:47.290Z,22.74
2023-03-23T16:41:03.800Z,23.39
2023-03-23T16:45:24.392Z,24.06
2023-03-23T16:49:40.657Z,25.66
2023-03-23T16:53:56.873Z,25.61
2023-03-23T16:58:16.928Z,26.19
2023-03-23T17:02:34.157Z,26.00
2023-03-23T17:06:51.910Z,26.34
2023-03-23T17:11:08.335Z,26.28
2023-03-23T17:15:25.960Z,27.05
2023-03-23T17:19:43.984Z,27.57
2023-03-23T17:24:00.285Z,27.10
2023-03-23T17:28:19.488Z,27.18
2023-03-23T17:32:36.933Z,27.28
2023-03-23T17:36:53.385Z,27.68
2023-03-23T17:41:13.768Z,28.31
2023-03-23T17:45:30.380Z,27.85
2023-03-23T17:49:49.058Z,28.17
2023-03-23T17:54:05.437Z,28.18
2023-03-23T17:58:23.124Z,28.03
2023-03-23T18:02:39.552Z,28.51
2023-03-23T18:06:57.938Z,28.87
2023-03-23T18:11:14.435Z,29.34
2023-03-23T18:15:31.217Z,29.75
2023-03-23T18:19:47.728Z,29.91
2023-03-23T18:24:04.070Z,30.07
2023-03-23T18:28:21.396Z,30.19
2023-03-23T18:32:39.097Z,30.44
2023-03-23T18:36:55.766Z,30.58
2023-03-23T18:41:13.225Z,30.61
2023-03-23T18:45:29.616Z,31.33
2023-03-23T18:49:47.521Z,32.10
2023-03-23T18:54:03.928Z,31.50
2023-03-23T18:58:20.901Z,31.94
2023-03-23T19:02:39.674Z,32.25
2023-03-23T19:06:56.027Z,31.88
2023-03-23T19:11:12.537Z,31.89
2023-03-23T19:15:28.837Z,31.83
2023-03-23T19:19:45.615Z,32.01
2023-03-23T19:24:04.248Z,32.01
2023-03-23T19:29:03.851Z,32.26
2023-03-23T19:32:57.372Z,31.85
2023-03-23T19:37:13.780Z,33.03
2023-03-23T19:41:30.108Z,32.09
2023-03-23T19:45:47.000Z,32.57
2023-03-23T19:50:03.603Z,32.14
2023-03-23T19:54:20.136Z,32.71
2023-03-23T19:58:36.726Z,32.74
2023-03-23T20:02:53.104Z,32.42
2023-03-23T20:07:09.981Z,33.06
2023-03-23T20:11:26.581Z,33.41
2023-03-23T20:15:42.967Z,33.52
2023-03-23T20:19:59.362Z,33.11
2023-03-23T20:24:16.098Z,33.99
2023-03-23T20:28:32.845Z,33.46
2023-03-23T20:32:49.318Z,33.71
2023-03-23T20:37:05.635Z,33.54
2023-03-23T20:41:21.913Z,34.00
2023-03-23T20:45:38.162Z,33.72
2023-03-23T20:49:55.587Z,33.58
2023-03-23T20:54:14.359Z,33.37
2023-03-23T20:58:34.599Z,33.36
2023-03-23T21:02:54.306Z,33.38
2023-03-23T21:07:11.041Z,33.50
2023-03-23T21:11:27.911Z,33.44
2023-03-23T21:15:45.109Z,34.13
2023-03-23T21:20:01.743Z,34.14
2023-03-23T21:24:17.986Z,34.14
2023-03-23T21:28:34.660Z,34.03
2023-03-23T21:32:51.657Z,34.40
2023-03-23T21:37:08.052Z,34.50
2023-03-23T21:41:25.045Z,34.55
2023-03-23T21:45:45.236Z,34.57
2023-03-23T21:50:02.260Z,34.97
2023-03-23T21:54:18.674Z,35.69
2023-03-23T21:58:35.323Z,36.17
2023-03-23T22:02:53.404Z,36.55
2023-03-23T22:07:09.791Z,36.22
2023-03-23T22:11:29.111Z,36.36
2023-03-23T22:15:48.183Z,37.03
2023-03-23T22:20:11.075Z,37.77
2023-03-23T22:24:27.444Z,38.47
2023-03-23T22:28:45.918Z,37.77
2023-03-23T22:33:02.537Z,38.06
2023-03-23T22:37:19.293Z,37.74
2023-03-23T22:41:38.356Z,37.92
2023-03-23T22:45:54.989Z,38.13
2023-03-23T22:50:11.585Z,38.54
2023-03-23T22:54:27.903Z,39.59
2023-03-23T22:58:44.472Z,40.25
2023-03-23T23:03:00.791Z,41.07
2023-03-23T23:07:17.449Z,41.09
2023-03-23T23:11:33.853Z,40.29
2023-03-23T23:15:53.199Z,42.67
2023-03-23T23:20:19.268Z,43.94
2023-03-23T23:24:36.265Z,45.36
2023-03-23T23:28:52.994Z,44.90
2023-03-23T23:33:09.498Z,43.61
2023-03-23T23:37:25.762Z,44.80
2023-03-23T23:41:42.110Z,45.49
2023-03-23T23:45:58.481Z,45.36
2023-03-23T23:50:15.817Z,44.62
2023-03-23T23:54:32.359Z,44.92
2023-03-23T23:58:49.209Z,45.78
